createdAt,value
2019-02-08T00:02:23.246Z,100965.69
2019-02-08T00:07:19.407Z,100960.42
2019-02-08T00:12:12.832Z,100965.16
2019-02-08T00:17:06.184Z,100964.27
2019-02-08T00:21:59.182Z,100973.20
2019-02-08T00:26:53.971Z,100975.68
2019-02-08T00:31:46.848Z,100977.48
2019-02-08T00:36:41.627Z,100976.09
2019-02-08T00:41:34.665Z,100964.59
2019-02-08T00:46:28.064Z,100964.34
2019-02-08T00:51:20.932Z,100961.98
2019-02-08T00:56:13.779Z,100964.64
2019-02-08T01:01:07.005Z,100970.64
2019-02-08T01:05:59.926Z,100968.59
2019-02-08T01:10:52.901Z,100967.95
2019-02-08T01:15:46.135Z,100960.59
2019-02-08T01:20:43.417Z,100956.28
2019-02-08T01:25:36.307Z,100943.64
2019-02-08T01:30:30.605Z,100944.45
2019-02-08T01:35:24.884Z,100952.72
2019-02-08T01:40:22.680Z,100953.48
2019-02-08T01:45:19.246Z,100953.68
2019-02-08T01:50:21.814Z,100947.13
2019-02-08T01:55:15.084Z,100944.97
2019-02-08T02:00:16.223Z,100942.25
2019-02-08T02:05:09.305Z,100938.94
2019-02-08T02:10:02.596Z,100946.84
2019-02-08T02:14:55.434Z,100944.48
2019-02-08T02:19:48.274Z,100947.05
2019-02-08T02:24:41.155Z,100947.38
2019-02-08T02:29:34.031Z,100954.75
2019-02-08T02:34:26.898Z,100950.62
2019-02-08T02:39:21.603Z,100947.50
2019-02-08T02:44:14.457Z,100944.66
2019-02-08T02:49:09.122Z,100944.97
2019-02-08T02:54:04.837Z,100946.48
2019-02-08T02:58:56.793Z,100941.86
2019-02-08T03:03:49.644Z,100944.48
2019-02-08T03:08:42.571Z,100940.99
2019-02-08T03:13:37.245Z,100940.25
2019-02-08T03:18:30.137Z,100941.59
2019-02-08T03:23:22.987Z,100940.22
2019-02-08T03:28:15.851Z,100935.27
2019-02-08T03:33:08.723Z,100936.67
2019-02-08T03:38:01.614Z,100937.66
2019-02-08T03:42:54.785Z,100929.58
2019-02-08T03:47:47.620Z,100923.80
2019-02-08T03:52:40.693Z,100916.89
2019-02-08T03:57:33.544Z,100914.37
2019-02-08T04:02:26.432Z,100913.75
2019-02-08T04:07:19.282Z,100912.54
2019-02-08T04:12:12.146Z,100908.10
2019-02-08T04:17:05.187Z,100906.23
2019-02-08T04:21:58.051Z,100902.09
2019-02-08T04:26:50.902Z,100899.18
2019-02-08T04:31:43.765Z,100898.67
2019-02-08T04:36:36.659Z,100895.91
2019-02-08T04:41:29.554Z,100896.59
2019-02-08T04:46:22.428Z,100902.41
2019-02-08T04:51:15.583Z,100900.03
2019-02-08T04:56:08.443Z,100897.19
2019-02-08T05:01:01.349Z,100891.94
2019-02-08T05:05:54.209Z,100897.94
2019-02-08T05:10:49.148Z,100891.02
2019-02-08T05:15:42.052Z,100890.86
2019-02-08T05:20:34.908Z,100894.82
2019-02-08T05:25:27.988Z,100882.56
2019-02-08T05:30:30.671Z,100886.36
2019-02-08T05:35:24.624Z,100880.06
2019-02-08T05:40:18.407Z,100879.12
2019-02-08T05:45:13.008Z,100874.51
2019-02-08T05:50:09.611Z,100873.72
2019-02-08T05:55:02.611Z,100872.78
2019-02-08T05:59:55.451Z,100871.60
2019-02-08T06:04:48.337Z,100864.75
2019-02-08T06:09:41.229Z,100865.86
2019-02-08T06:14:34.134Z,100863.27
2019-02-08T06:19:27.009Z,100879.71
2019-02-08T06:24:19.883Z,100875.12
2019-02-08T06:29:12.757Z,100868.77
2019-02-08T06:34:05.758Z,100868.44
2019-02-08T06:38:58.869Z,100869.09
2019-02-08T06:43:51.734Z,100871.03
2019-02-08T06:48:44.706Z,100872.27
2019-02-08T06:53:37.565Z,100885.31
2019-02-08T06:58:37.733Z,100873.11
2019-02-08T07:04:05.231Z,100873.55
2019-02-08T07:09:17.691Z,100875.98
2019-02-08T07:14:47.124Z,100880.91
2019-02-08T07:20:08.533Z,100871.81
2019-02-08T07:25:39.223Z,100870.87
2019-02-08T07:30:57.608Z,100876.06
2019-02-08T07:35:58.447Z,100871.05
2019-02-08T07:41:23.527Z,100860.20
2019-02-08T07:46:29.440Z,100870.25
2019-02-08T07:51:37.720Z,100869.20
2019-02-08T07:56:47.466Z,100862.13
2019-02-08T08:02:04.772Z,100865.14
2019-02-08T08:07:23.029Z,100872.77
2019-02-08T08:12:37.376Z,100889.11
2019-02-08T08:17:49.147Z,100882.73
2019-02-08T08:23:04.830Z,100881.57
2019-02-08T08:28:15.980Z,100871.98
2019-02-08T08:33:23.701Z,100878.48
2019-02-08T08:39:26.593Z,100871.92
2019-02-08T08:45:35.862Z,100871.17
2019-02-08T08:51:19.227Z,100877.10
2019-02-08T08:57:05.682Z,100865.83
2019-02-08T09:02:31.845Z,100862.33
2019-02-08T09:08:59.612Z,100859.22
2019-02-08T09:15:08.474Z,100858.33
2019-02-08T09:21:13.408Z,100843.87
2019-02-08T09:27:21.289Z,100839.63
2019-02-08T09:33:22.077Z,100834.81
2019-02-08T09:39:27.389Z,100821.44
2019-02-08T09:45:36.909Z,100819.02
2019-02-08T09:51:15.801Z,100815.92
2019-02-08T09:57:14.282Z,100805.98
2019-02-08T10:03:12.400Z,100798.16
2019-02-08T10:09:15.231Z,100800.95
2019-02-08T10:15:20.825Z,100784.09
2019-02-08T10:21:45.680Z,100787.67
2019-02-08T10:27:49.470Z,100776.61
2019-02-08T10:33:45.978Z,100768.77
2019-02-08T10:39:35.962Z,100774.65
2019-02-08T10:45:20.584Z,100766.17
2019-02-08T10:51:30.901Z,100756.34
2019-02-08T10:57:27.203Z,100757.54
2019-02-08T11:03:38.115Z,100746.67
2019-02-08T11:09:20.590Z,100737.49
2019-02-08T11:15:08.412Z,100728.95
2019-02-08T11:20:01.268Z,100718.25
2019-02-08T11:24:54.259Z,100721.47
2019-02-08T11:29:47.125Z,100711.09
2019-02-08T11:34:40.010Z,100702.16
2019-02-08T11:39:32.873Z,100701.58
2019-02-08T11:44:25.840Z,100686.11
2019-02-08T11:49:21.679Z,100680.86
2019-02-08T11:54:18.454Z,100679.57
2019-02-08T11:59:11.378Z,100674.48
2019-02-08T12:04:05.273Z,100672.03
2019-02-08T12:08:58.130Z,100663.44
2019-02-08T12:13:51.015Z,100663.41
2019-02-08T12:18:43.867Z,100659.69
2019-02-08T12:23:36.743Z,100656.89
2019-02-08T12:28:32.658Z,100645.14
2019-02-08T12:33:28.616Z,100637.28
2019-02-08T12:38:21.623Z,100632.22
2019-02-08T12:43:14.481Z,100630.89
2019-02-08T12:48:07.367Z,100618.43
2019-02-08T12:53:00.320Z,100620.88
2019-02-08T12:57:54.140Z,100620.66
2019-02-08T13:02:47.031Z,100617.98
2019-02-08T13:07:39.929Z,100610.11
2019-02-08T13:12:32.805Z,100610.59
2019-02-08T13:17:25.691Z,100604.33
2019-02-08T13:22:18.575Z,100595.38
2019-02-08T13:27:11.442Z,100591.45
2019-02-08T13:32:04.742Z,100581.26
2019-02-08T13:36:57.634Z,100575.75
2019-02-08T13:41:50.476Z,100573.41
2019-02-08T13:46:43.342Z,100559.48
2019-02-08T13:51:36.379Z,100559.19
2019-02-08T13:56:29.228Z,100562.39
2019-02-08T14:01:22.099Z,100558.16
2019-02-08T14:06:15.112Z,100556.20
2019-02-08T14:11:07.994Z,100542.63
2019-02-08T14:16:00.888Z,100530.95
2019-02-08T14:20:53.762Z,100520.32
2019-02-08T14:25:46.640Z,100513.38
2019-02-08T14:30:40.781Z,100496.40
2019-02-08T14:35:33.973Z,100486.03
2019-02-08T14:40:27.437Z,100487.52
2019-02-08T14:45:20.323Z,100463.66
2019-02-08T14:50:19.424Z,100476.81
2019-02-08T14:55:13.611Z,100473.52
2019-02-08T15:00:15.908Z,100461.86
2019-02-08T15:05:13.592Z,100455.05
2019-02-08T15:10:16.046Z,100453.42
2019-02-08T15:15:13.439Z,100437.13
2019-02-08T15:20:15.911Z,100420.45
2019-02-08T15:25:13.477Z,100416.48
2019-02-08T15:30:13.607Z,100404.80
2019-02-08T15:35:11.831Z,100395.85
2019-02-08T15:40:11.815Z,100403.80
2019-02-08T15:45:14.220Z,100396.95
2019-02-08T15:50:10.723Z,100392.77
2019-02-08T15:55:10.445Z,100391.54
2019-02-08T16:00:07.631Z,100388.88
2019-02-08T16:05:05.182Z,100385.55
2019-02-08T16:10:01.843Z,100376.61
2019-02-08T16:14:58.830Z,100375.17
2019-02-08T16:19:56.664Z,100362.92
2019-02-08T16:24:55.300Z,100360.76
2019-02-08T16:29:51.788Z,100351.77
2019-02-08T16:34:47.513Z,100345.73
2019-02-08T16:39:44.257Z,100340.44
2019-02-08T16:44:41.223Z,100329.89
2019-02-08T16:49:36.784Z,100329.48
2019-02-08T16:54:31.989Z,100324.72
2019-02-08T16:59:24.837Z,100319.39
2019-02-08T17:04:17.755Z,100305.49
2019-02-08T17:09:12.947Z,100291.63
2019-02-08T17:14:06.867Z,100288.20
2019-02-08T17:18:59.728Z,100277.59
2019-02-08T17:23:52.598Z,100279.25
2019-02-08T17:28:45.480Z,100264.86
2019-02-08T17:33:38.349Z,100251.56
2019-02-08T17:38:33.005Z,100248.50
2019-02-08T17:43:25.864Z,100241.61
2019-02-08T17:48:18.739Z,100237.50
2019-02-08T17:53:11.582Z,100239.39
2019-02-08T17:58:04.664Z,100243.35
2019-02-08T18:02:57.550Z,100242.09
2019-02-08T18:07:50.445Z,100234.41
2019-02-08T18:12:44.975Z,100227.62
2019-02-08T18:17:38.179Z,100220.13
2019-02-08T18:22:50.500Z,100228.98
2019-02-08T18:27:43.350Z,100227.37
2019-02-08T18:32:36.197Z,100219.63
2019-02-08T18:37:29.123Z,100209.73
2019-02-08T18:42:21.984Z,100200.92
2019-02-08T18:47:14.883Z,100186.93
2019-02-08T18:52:07.772Z,100178.38
2019-02-08T18:57:00.689Z,100168.77
2019-02-08T19:01:53.588Z,100170.55
2019-02-08T19:06:46.469Z,100162.26
2019-02-08T19:11:39.330Z,100154.75
2019-02-08T19:16:34.040Z,100152.61
2019-02-08T19:21:28.112Z,100145.52
2019-02-08T19:26:20.963Z,100144.21
2019-02-08T19:31:13.823Z,100136.48
2019-02-08T19:36:06.685Z,100121.11
2019-02-08T19:40:59.540Z,100109.48
2019-02-08T19:45:52.635Z,100107.80
2019-02-08T19:50:46.035Z,100098.91
2019-02-08T19:55:39.554Z,100087.11
2019-02-08T20:00:33.626Z,100095.15
2019-02-08T20:05:26.714Z,100094.83
2019-02-08T20:10:26.623Z,100080.92
2019-02-08T20:15:20.864Z,100075.47
2019-02-08T20:20:13.873Z,100068.39
2019-02-08T20:25:11.772Z,100064.00
2019-02-08T20:30:09.191Z,100054.54
2019-02-08T20:35:02.122Z,100054.95
2019-02-08T20:39:54.973Z,100039.94
2019-02-08T20:44:47.870Z,100034.23
2019-02-08T20:49:40.726Z,100031.92
2019-02-08T20:54:33.862Z,100026.61
2019-02-08T20:59:26.941Z,100011.45
2019-02-08T21:04:19.788Z,99988.36
2019-02-08T21:09:33.041Z,99965.75
2019-02-08T21:14:27.616Z,99955.81
2019-02-08T21:19:20.476Z,99956.25
2019-02-08T21:24:17.069Z,99933.00
2019-02-08T21:29:19.339Z,99922.06
2019-02-08T21:34:13.286Z,99908.81
2019-02-08T21:39:08.454Z,99905.27
2019-02-08T21:44:01.437Z,99901.16
2019-02-08T21:48:54.383Z,99887.61
2019-02-08T21:53:47.212Z,99886.86
2019-02-08T21:58:40.327Z,99894.09
2019-02-08T22:03:34.628Z,99882.21
2019-02-08T22:08:28.518Z,99877.88
2019-02-08T22:13:21.427Z,99873.37
2019-02-08T22:18:19.706Z,99877.18
2019-02-08T22:23:18.514Z,99870.02
2019-02-08T22:28:14.825Z,99865.30
2019-02-08T22:33:08.651Z,99850.80
2019-02-08T22:38:01.752Z,99853.91
2019-02-08T22:42:54.725Z,99849.28
2019-02-08T22:47:47.930Z,99844.45
2019-02-08T22:52:41.615Z,99834.30
2019-02-08T22:57:34.488Z,99813.75
2019-02-08T23:02:28.530Z,99811.13
2019-02-08T23:07:21.402Z,99793.91
2019-02-08T23:12:14.268Z,99796.97
2019-02-08T23:17:07.354Z,99795.70
2019-02-08T23:22:01.237Z,99803.39
2019-02-08T23:26:55.297Z,99798.53
2019-02-08T23:31:49.490Z,99798.87
2019-02-08T23:36:42.488Z,99778.20
2019-02-08T23:41:35.483Z,99790.30
2019-02-08T23:46:28.486Z,99781.80
2019-02-08T23:51:21.337Z,99774.95
2019-02-08T23:56:14.219Z,99762.47
